sensor_id;sensor_type;location;lat;lon;timestamp;temperature;humidity
51867;DHT22;52862;52.504;13.480;2022-10-31T00:02:27;12.80;99.90
51867;DHT22;52862;52.504;13.480;2022-10-31T00:04:54;12.80;99.90
51867;DHT22;52862;52.504;13.480;2022-10-31T00:07:20;12.90;99.90
51867;DHT22;52862;52.504;13.480;2022-10-31T00:09:47;12.80;99.90
51867;DHT22;52862;52.504;13.480;2022-10-31T00:12:14;12.80;99.90
51867;DHT22;52862;52.504;13.480;2022-10-31T00:14:40;12.80;99.90
51867;DHT22;52862;52.504;13.480;2022-10-31T00:17:07;13.10;99.90
51867;DHT22;52862;52.504;13.480;2022-10-31T00:19:34;12.80;99.90
51867;DHT22;52862;52.504;13.480;2022-10-31T00:22:00;12.60;99.90
51867;DHT22;52862;52.504;13.480;2022-10-31T00:24:27;12.60;99.90
51867;DHT22;52862;52.504;13.480;2022-10-31T00:26:53;12.60;99.90
51867;DHT22;52862;52.504;13.480;2022-10-31T00:29:20;12.60;99.90
51867;DHT22;52862;52.504;13.480;2022-10-31T00:31:47;12.50;99.90
51867;DHT22;52862;52.504;13.480;2022-10-31T00:34:13;12.70;99.90
51867;DHT22;52862;52.504;13.480;2022-10-31T00:36:41;12.50;99.90
51867;DHT22;52862;52.504;13.480;2022-10-31T00:39:07;12.40;99.90
51867;DHT22;52862;52.504;13.480;2022-10-31T00:41:34;12.40;99.90
51867;DHT22;52862;52.504;13.480;2022-10-31T00:44:01;12.40;99.90
51867;DHT22;52862;52.504;13.480;2022-10-31T00:46:27;12.60;99.90
51867;DHT22;52862;52.504;13.480;2022-10-31T00:48:54;12.50;99.90
51867;DHT22;52862;52.504;13.480;2022-10-31T00:51:20;12.50;99.90
51867;DHT22;52862;52.504;13.480;2022-10-31T00:53:48;10.50;99.90
51867;DHT22;52862;52.504;13.480;2022-10-31T00:56:14;12.40;99.90
51867;DHT22;52862;52.504;13.480;2022-10-31T00:58:41;12.40;99.90
51867;DHT22;52862;52.504;13.480;2022-10-31T01:01:07;12.40;99.90
51867;DHT22;52862;52.504;13.480;2022-10-31T01:03:35;12.30;99.90
51867;DHT22;52862;52.504;13.480;2022-10-31T01:06:04;12.30;99.90
51867;DHT22;52862;52.504;13.480;2022-10-31T01:08:31;12.20;99.90
51867;DHT22;52862;52.504;13.480;2022-10-31T01:11:04;12.20;99.90
51867;DHT22;52862;52.504;13.480;2022-10-31T01:13:31;12.20;99.90
51867;DHT22;52862;52.504;13.480;2022-10-31T01:15:59;12.20;99.90
51867;DHT22;52862;52.504;13.480;2022-10-31T01:18:26;12.20;99.90
51867;DHT22;52862;52.504;13.480;2022-10-31T01:21:01;12.20;99.90
51867;DHT22;52862;52.504;13.480;2022-10-31T01:23:28;12.20;99.90
51867;DHT22;52862;52.504;13.480;2022-10-31T01:26:04;12.10;99.90
51867;DHT22;52862;52.504;13.480;2022-10-31T01:28:30;12.10;99.90
51867;DHT22;52862;52.504;13.480;2022-10-31T01:31:00;12.10;99.90
51867;DHT22;52862;52.504;13.480;2022-10-31T01:33:27;12.10;99.90
51867;DHT22;52862;52.504;13.480;2022-10-31T01:35:54;12.00;99.90
51867;DHT22;52862;52.504;13.480;2022-10-31T01:38:20;12.00;99.90
51867;DHT22;52862;52.504;13.480;2022-10-31T01:40:47;12.00;99.90
51867;DHT22;52862;52.504;13.480;2022-10-31T01:43:14;12.00;99.90
51867;DHT22;52862;52.504;13.480;2022-10-31T01:45:41;12.00;99.90
51867;DHT22;52862;52.504;13.480;2022-10-31T01:48:13;12.00;99.90
51867;DHT22;52862;52.504;13.480;2022-10-31T01:50:42;12.00;99.90
51867;DHT22;52862;52.504;13.480;2022-10-31T01:53:10;12.00;99.90
51867;DHT22;52862;52.504;13.480;2022-10-31T01:55:39;12.20;99.90
51867;DHT22;52862;52.504;13.480;2022-10-31T01:58:09;12.00;99.90
51867;DHT22;52862;52.504;13.480;2022-10-31T02:00:39;12.00;99.90
51867;DHT22;52862;52.504;13.480;2022-10-31T02:03:08;12.00;99.90
51867;DHT22;52862;52.504;13.480;2022-10-31T02:05:35;12.00;99.90
51867;DHT22;52862;52.504;13.480;2022-10-31T02:08:05;12.00;99.90
51867;DHT22;52862;52.504;13.480;2022-10-31T02:10:34;12.00;99.90
51867;DHT22;52862;52.504;13.480;2022-10-31T02:13:04;11.90;99.90
51867;DHT22;52862;52.504;13.480;2022-10-31T02:15:32;12.00;99.90
51867;DHT22;52862;52.504;13.480;2022-10-31T02:18:00;12.00;99.90
51867;DHT22;52862;52.504;13.480;2022-10-31T02:20:31;12.10;99.90
51867;DHT22;52862;52.504;13.480;2022-10-31T02:23:22;12.10;99.90
51867;DHT22;52862;52.504;13.480;2022-10-31T02:26:12;12.10;99.90
51867;DHT22;52862;52.504;13.480;2022-10-31T02:29:05;12.10;99.90
51867;DHT22;52862;52.504;13.480;2022-10-31T02:31:40;12.00;99.90
51867;DHT22;52862;52.504;13.480;2022-10-31T02:34:16;12.00;99.90
51867;DHT22;52862;52.504;13.480;2022-10-31T02:36:48;12.00;99.90
51867;DHT22;52862;52.504;13.480;2022-10-31T02:39:22;11.90;99.90
51867;DHT22;52862;52.504;13.480;2022-10-31T02:41:56;12.00;99.90
51867;DHT22;52862;52.504;13.480;2022-10-31T02:44:32;12.00;99.90
51867;DHT22;52862;52.504;13.480;2022-10-31T02:47:05;11.90;99.90
51867;DHT22;52862;52.504;13.480;2022-10-31T02:49:38;12.00;99.90
51867;DHT22;52862;52.504;13.480;2022-10-31T02:52:14;11.80;99.90
51867;DHT22;52862;52.504;13.480;2022-10-31T02:54:43;11.80;99.90
51867;DHT22;52862;52.504;13.480;2022-10-31T02:57:11;11.80;99.90
51867;DHT22;52862;52.504;13.480;2022-10-31T02:59:41;11.80;99.90
51867;DHT22;52862;52.504;13.480;2022-10-31T03:02:36;11.80;99.90
51867;DHT22;52862;52.504;13.480;2022-10-31T03:05:14;11.80;99.90
51867;DHT22;52862;52.504;13.480;2022-10-31T03:07:50;11.80;99.90
51867;DHT22;52862;52.504;13.480;2022-10-31T03:10:30;11.80;99.90
51867;DHT22;52862;52.504;13.480;2022-10-31T03:13:04;12.00;99.90
51867;DHT22;52862;52.504;13.480;2022-10-31T03:15:34;11.80;99.90
51867;DHT22;52862;52.504;13.480;2022-10-31T03:18:07;11.80;99.90
51867;DHT22;52862;52.504;13.480;2022-10-31T03:20:37;11.70;99.90
51867;DHT22;52862;52.504;13.480;2022-10-31T03:23:07;11.70;99.90
51867;DHT22;52862;52.504;13.480;2022-10-31T03:25:36;11.70;99.90
51867;DHT22;52862;52.504;13.480;2022-10-31T03:28:05;11.70;99.90
51867;DHT22;52862;52.504;13.480;2022-10-31T03:30:35;11.70;99.90
51867;DHT22;52862;52.504;13.480;2022-10-31T03:33:06;11.70;99.90
51867;DHT22;52862;52.504;13.480;2022-10-31T03:35:36;11.60;99.90
51867;DHT22;52862;52.504;13.480;2022-10-31T03:38:04;11.70;99.90
51867;DHT22;52862;52.504;13.480;2022-10-31T03:40:35;11.70;99.90
51867;DHT22;52862;52.504;13.480;2022-10-31T03:43:06;11.60;99.90
51867;DHT22;52862;52.504;13.480;2022-10-31T03:45:40;11.60;99.90
51867;DHT22;52862;52.504;13.480;2022-10-31T03:48:09;11.50;99.90
51867;DHT22;52862;52.504;13.480;2022-10-31T03:50:40;11.70;99.90
51867;DHT22;52862;52.504;13.480;2022-10-31T03:53:14;11.90;99.90
51867;DHT22;52862;52.504;13.480;2022-10-31T03:55:49;12.00;99.90
51867;DHT22;52862;52.504;13.480;2022-10-31T03:58:21;11.90;99.90
51867;DHT22;52862;52.504;13.480;2022-10-31T04:00:51;11.80;99.90
51867;DHT22;52862;52.504;13.480;2022-10-31T04:03:23;12.00;99.90
51867;DHT22;52862;52.504;13.480;2022-10-31T04:05:55;11.90;99.90
51867;DHT22;52862;52.504;13.480;2022-10-31T04:08:26;11.70;99.90
51867;DHT22;52862;52.504;13.480;2022-10-31T04:10:55;11.80;99.90
51867;DHT22;52862;52.504;13.480;2022-10-31T04:13:25;12.10;99.90
51867;DHT22;52862;52.504;13.480;2022-10-31T04:15:54;12.00;99.90
51867;DHT22;52862;52.504;13.480;2022-10-31T04:18:23;11.90;99.90
51867;DHT22;52862;52.504;13.480;2022-10-31T04:20:59;11.80;99.90
51867;DHT22;52862;52.504;13.480;2022-10-31T04:23:27;11.80;99.90
51867;DHT22;52862;52.504;13.480;2022-10-31T04:25:54;11.70;99.90
51867;DHT22;52862;52.504;13.480;2022-10-31T04:28:21;11.40;99.90
51867;DHT22;52862;52.504;13.480;2022-10-31T04:30:47;11.70;99.90
51867;DHT22;52862;52.504;13.480;2022-10-31T04:33:14;11.70;99.90
51867;DHT22;52862;52.504;13.480;2022-10-31T04:35:42;11.60;99.90
51867;DHT22;52862;52.504;13.480;2022-10-31T04:38:08;12.90;99.90
51867;DHT22;52862;52.504;13.480;2022-10-31T04:40:35;11.60;99.90
51867;DHT22;52862;52.504;13.480;2022-10-31T04:43:01;11.60;99.90
51867;DHT22;52862;52.504;13.480;2022-10-31T04:45:28;11.60;99.90
51867;DHT22;52862;52.504;13.480;2022-10-31T04:47:55;11.70;99.90
51867;DHT22;52862;52.504;13.480;2022-10-31T04:50:22;11.70;99.90
51867;DHT22;52862;52.504;13.480;2022-10-31T04:52:49;11.60;99.90
51867;DHT22;52862;52.504;13.480;2022-10-31T04:55:15;11.60;99.90
51867;DHT22;52862;52.504;13.480;2022-10-31T04:57:43;11.90;99.90
51867;DHT22;52862;52.504;13.480;2022-10-31T05:00:11;12.10;99.90
51867;DHT22;52862;52.504;13.480;2022-10-31T05:02:43;12.30;99.90
51867;DHT22;52862;52.504;13.480;2022-10-31T05:05:10;12.20;99.90
51867;DHT22;52862;52.504;13.480;2022-10-31T05:07:39;12.20;99.90
51867;DHT22;52862;52.504;13.480;2022-10-31T05:10:07;12.30;99.90
51867;DHT22;52862;52.504;13.480;2022-10-31T05:12:35;12.70;99.90
51867;DHT22;52862;52.504;13.480;2022-10-31T05:15:02;12.80;99.90
51867;DHT22;52862;52.504;13.480;2022-10-31T05:17:30;12.90;99.90
51867;DHT22;52862;52.504;13.480;2022-10-31T05:19:57;13.00;99.90
51867;DHT22;52862;52.504;13.480;2022-10-31T05:22:24;13.00;99.90
51867;DHT22;52862;52.504;13.480;2022-10-31T05:24:50;13.10;99.90
51867;DHT22;52862;52.504;13.480;2022-10-31T05:27:17;13.10;99.90
51867;DHT22;52862;52.504;13.480;2022-10-31T05:29:44;13.10;99.90
51867;DHT22;52862;52.504;13.480;2022-10-31T05:32:10;13.10;99.90
51867;DHT22;52862;52.504;13.480;2022-10-31T05:34:37;13.00;99.90
51867;DHT22;52862;52.504;13.480;2022-10-31T05:37:04;13.10;99.90
51867;DHT22;52862;52.504;13.480;2022-10-31T05:39:30;13.10;99.90
51867;DHT22;52862;52.504;13.480;2022-10-31T05:41:57;13.10;99.90
51867;DHT22;52862;52.504;13.480;2022-10-31T05:44:24;13.20;99.90
51867;DHT22;52862;52.504;13.480;2022-10-31T05:46:51;13.10;99.90
51867;DHT22;52862;52.504;13.480;2022-10-31T05:49:17;13.20;99.90
51867;DHT22;52862;52.504;13.480;2022-10-31T05:51:44;13.20;99.90
51867;DHT22;52862;52.504;13.480;2022-10-31T05:54:11;13.50;99.90
51867;DHT22;52862;52.504;13.480;2022-10-31T05:56:41;13.20;99.90
51867;DHT22;52862;52.504;13.480;2022-10-31T05:59:08;13.20;99.90
51867;DHT22;52862;52.504;13.480;2022-10-31T06:01:35;13.20;99.90
51867;DHT22;52862;52.504;13.480;2022-10-31T06:04:02;14.70;99.90
51867;DHT22;52862;52.504;13.480;2022-10-31T06:06:29;13.10;99.90
51867;DHT22;52862;52.504;13.480;2022-10-31T06:08:55;12.90;99.90
51867;DHT22;52862;52.504;13.480;2022-10-31T06:11:22;13.20;99.90
51867;DHT22;52862;52.504;13.480;2022-10-31T06:13:49;13.10;99.90
51867;DHT22;52862;52.504;13.480;2022-10-31T06:16:15;13.20;99.90
51867;DHT22;52862;52.504;13.480;2022-10-31T06:18:43;13.10;99.90
51867;DHT22;52862;52.504;13.480;2022-10-31T06:21:09;13.10;99.90
51867;DHT22;52862;52.504;13.480;2022-10-31T06:23:40;13.10;99.90
51867;DHT22;52862;52.504;13.480;2022-10-31T06:26:07;13.60;99.90
51867;DHT22;52862;52.504;13.480;2022-10-31T06:28:33;13.30;99.90
51867;DHT22;52862;52.504;13.480;2022-10-31T06:31:00;13.30;99.90
51867;DHT22;52862;52.504;13.480;2022-10-31T06:33:27;13.40;99.90
51867;DHT22;52862;52.504;13.480;2022-10-31T06:35:54;13.40;99.90
51867;DHT22;52862;52.504;13.480;2022-10-31T06:38:20;13.20;99.90
51867;DHT22;52862;52.504;13.480;2022-10-31T06:40:47;13.30;99.90
51867;DHT22;52862;52.504;13.480;2022-10-31T06:43:14;13.30;99.90
51867;DHT22;52862;52.504;13.480;2022-10-31T06:45:40;13.40;99.90
51867;DHT22;52862;52.504;13.480;2022-10-31T06:48:07;13.50;99.90
51867;DHT22;52862;52.504;13.480;2022-10-31T06:50:45;13.50;99.90
51867;DHT22;52862;52.504;13.480;2022-10-31T06:53:13;13.70;99.90
51867;DHT22;52862;52.504;13.480;2022-10-31T06:55:41;13.70;99.90
51867;DHT22;52862;52.504;13.480;2022-10-31T06:58:10;13.80;99.90
51867;DHT22;52862;52.504;13.480;2022-10-31T07:00:37;13.80;99.90
51867;DHT22;52862;52.504;13.480;2022-10-31T07:03:05;13.80;99.90
51867;DHT22;52862;52.504;13.480;2022-10-31T07:05:32;13.80;99.90
51867;DHT22;52862;52.504;13.480;2022-10-31T07:08:01;13.70;99.90
51867;DHT22;52862;52.504;13.480;2022-10-31T07:10:30;13.90;99.90
51867;DHT22;52862;52.504;13.480;2022-10-31T07:13:06;14.00;99.90
51867;DHT22;52862;52.504;13.480;2022-10-31T07:15:34;14.00;99.90
51867;DHT22;52862;52.504;13.480;2022-10-31T07:18:01;14.10;99.90
51867;DHT22;52862;52.504;13.480;2022-10-31T07:20:28;14.40;99.90
51867;DHT22;52862;52.504;13.480;2022-10-31T07:22:55;14.30;99.90
51867;DHT22;52862;52.504;13.480;2022-10-31T07:25:22;14.30;99.90
51867;DHT22;52862;52.504;13.480;2022-10-31T07:27:50;14.50;99.90
51867;DHT22;52862;52.504;13.480;2022-10-31T07:30:17;14.50;99.90
51867;DHT22;52862;52.504;13.480;2022-10-31T07:32:45;14.60;99.90
51867;DHT22;52862;52.504;13.480;2022-10-31T07:35:14;14.60;99.90
51867;DHT22;52862;52.504;13.480;2022-10-31T07:37:41;14.80;99.90
51867;DHT22;52862;52.504;13.480;2022-10-31T07:40:09;15.00;99.90
51867;DHT22;52862;52.504;13.480;2022-10-31T07:42:36;15.00;99.90
51867;DHT22;52862;52.504;13.480;2022-10-31T07:45:05;15.00;99.90
51867;DHT22;52862;52.504;13.480;2022-10-31T07:47:38;15.10;99.90
51867;DHT22;52862;52.504;13.480;2022-10-31T07:50:05;15.10;99.90
51867;DHT22;52862;52.504;13.480;2022-10-31T07:52:32;15.20;99.90
51867;DHT22;52862;52.504;13.480;2022-10-31T07:54:59;15.20;99.90
51867;DHT22;52862;52.504;13.480;2022-10-31T07:57:25;15.30;99.90
51867;DHT22;52862;52.504;13.480;2022-10-31T07:59:59;15.40;99.90
51867;DHT22;52862;52.504;13.480;2022-10-31T08:02:26;15.50;99.90
51867;DHT22;52862;52.504;13.480;2022-10-31T08:04:53;15.30;99.90
51867;DHT22;52862;52.504;13.480;2022-10-31T08:07:26;15.80;99.90
51867;DHT22;52862;52.504;13.480;2022-10-31T08:09:52;15.00;99.90
51867;DHT22;52862;52.504;13.480;2022-10-31T08:12:19;15.40;99.90
51867;DHT22;52862;52.504;13.480;2022-10-31T08:14:45;15.40;99.90
51867;DHT22;52862;52.504;13.480;2022-10-31T08:17:12;15.20;99.90
51867;DHT22;52862;52.504;13.480;2022-10-31T08:19:39;15.20;99.90
51867;DHT22;52862;52.504;13.480;2022-10-31T08:22:06;15.10;99.90
51867;DHT22;52862;52.504;13.480;2022-10-31T08:24:32;15.10;99.90
51867;DHT22;52862;52.504;13.480;2022-10-31T08:26:59;15.10;99.90
51867;DHT22;52862;52.504;13.480;2022-10-31T08:29:26;15.00;99.90
51867;DHT22;52862;52.504;13.480;2022-10-31T08:31:52;15.00;99.90
51867;DHT22;52862;52.504;13.480;2022-10-31T08:34:19;15.10;99.90
51867;DHT22;52862;52.504;13.480;2022-10-31T08:36:46;15.00;99.90
51867;DHT22;52862;52.504;13.480;2022-10-31T08:39:13;15.00;99.90
51867;DHT22;52862;52.504;13.480;2022-10-31T08:41:39;14.90;99.90
51867;DHT22;52862;52.504;13.480;2022-10-31T08:44:06;14.80;99.90
51867;DHT22;52862;52.504;13.480;2022-10-31T08:46:33;14.80;99.90
51867;DHT22;52862;52.504;13.480;2022-10-31T08:49:00;14.60;99.90
51867;DHT22;52862;52.504;13.480;2022-10-31T08:51:26;14.90;99.90
51867;DHT22;52862;52.504;13.480;2022-10-31T08:53:54;15.00;99.90
51867;DHT22;52862;52.504;13.480;2022-10-31T08:56:20;15.20;99.90
51867;DHT22;52862;52.504;13.480;2022-10-31T08:58:48;15.30;99.90
51867;DHT22;52862;52.504;13.480;2022-10-31T09:01:14;15.20;99.90
51867;DHT22;52862;52.504;13.480;2022-10-31T09:03:41;15.30;99.90
51867;DHT22;52862;52.504;13.480;2022-10-31T09:06:08;15.30;99.90
51867;DHT22;52862;52.504;13.480;2022-10-31T09:08:35;15.30;99.90
51867;DHT22;52862;52.504;13.480;2022-10-31T09:11:03;15.30;99.90
51867;DHT22;52862;52.504;13.480;2022-10-31T09:13:30;15.40;99.90
51867;DHT22;52862;52.504;13.480;2022-10-31T09:15:57;15.50;99.90
51867;DHT22;52862;52.504;13.480;2022-10-31T09:18:24;15.60;99.90
51867;DHT22;52862;52.504;13.480;2022-10-31T09:20:51;15.70;99.90
51867;DHT22;52862;52.504;13.480;2022-10-31T09:23:19;15.80;99.90
51867;DHT22;52862;52.504;13.480;2022-10-31T09:25:47;15.80;99.90
51867;DHT22;52862;52.504;13.480;2022-10-31T09:28:19;15.70;99.90
51867;DHT22;52862;52.504;13.480;2022-10-31T09:30:47;15.50;99.90
51867;DHT22;52862;52.504;13.480;2022-10-31T09:33:14;15.60;99.90
51867;DHT22;52862;52.504;13.480;2022-10-31T09:35:41;15.40;99.90
51867;DHT22;52862;52.504;13.480;2022-10-31T09:38:10;15.80;99.90
51867;DHT22;52862;52.504;13.480;2022-10-31T09:40:38;16.10;99.90
51867;DHT22;52862;52.504;13.480;2022-10-31T09:43:13;16.30;99.90
51867;DHT22;52862;52.504;13.480;2022-10-31T09:45:49;16.80;99.90
51867;DHT22;52862;52.504;13.480;2022-10-31T09:48:34;16.60;99.90
51867;DHT22;52862;52.504;13.480;2022-10-31T09:51:07;16.70;99.90
51867;DHT22;52862;52.504;13.480;2022-10-31T09:53:38;16.50;99.90
51867;DHT22;52862;52.504;13.480;2022-10-31T09:56:08;16.70;99.90
51867;DHT22;52862;52.504;13.480;2022-10-31T09:58:41;16.60;99.90
51867;DHT22;52862;52.504;13.480;2022-10-31T10:01:21;16.50;99.90
51867;DHT22;52862;52.504;13.480;2022-10-31T10:03:51;16.40;99.90
51867;DHT22;52862;52.504;13.480;2022-10-31T10:06:24;16.20;99.90
51867;DHT22;52862;52.504;13.480;2022-10-31T10:08:52;16.10;99.90
51867;DHT22;52862;52.504;13.480;2022-10-31T10:11:36;15.90;99.90
51867;DHT22;52862;52.504;13.480;2022-10-31T10:17:09;16.20;99.90
51867;DHT22;52862;52.504;13.480;2022-10-31T10:20:00;16.40;99.90
51867;DHT22;52862;52.504;13.480;2022-10-31T10:22:35;16.60;99.90
51867;DHT22;52862;52.504;13.480;2022-10-31T10:25:14;16.90;99.90
51867;DHT22;52862;52.504;13.480;2022-10-31T10:27:51;16.80;99.90
51867;DHT22;52862;52.504;13.480;2022-10-31T10:30:21;16.70;99.90
51867;DHT22;52862;52.504;13.480;2022-10-31T10:32:51;16.60;99.90
51867;DHT22;52862;52.504;13.480;2022-10-31T10:35:23;16.50;99.90
51867;DHT22;52862;52.504;13.480;2022-10-31T10:37:52;16.50;99.90
51867;DHT22;52862;52.504;13.480;2022-10-31T10:40:24;16.30;99.90
51867;DHT22;52862;52.504;13.480;2022-10-31T10:42:58;16.40;99.90
51867;DHT22;52862;52.504;13.480;2022-10-31T10:45:48;16.50;99.90
51867;DHT22;52862;52.504;13.480;2022-10-31T10:48:42;16.80;99.90
51867;DHT22;52862;52.504;13.480;2022-10-31T10:51:19;17.00;99.90
51867;DHT22;52862;52.504;13.480;2022-10-31T10:54:19;17.30;99.90
51867;DHT22;52862;52.504;13.480;2022-10-31T10:56:59;17.50;99.90
51867;DHT22;52862;52.504;13.480;2022-10-31T10:59:27;17.60;99.90
51867;DHT22;52862;52.504;13.480;2022-10-31T11:01:53;17.70;99.90
51867;DHT22;52862;52.504;13.480;2022-10-31T11:04:32;17.70;99.90
51867;DHT22;52862;52.504;13.480;2022-10-31T11:07:01;17.70;99.90
51867;DHT22;52862;52.504;13.480;2022-10-31T11:09:28;17.70;99.90
51867;DHT22;52862;52.504;13.480;2022-10-31T11:11:55;17.70;99.90
51867;DHT22;52862;52.504;13.480;2022-10-31T11:14:23;17.70;99.90
51867;DHT22;52862;52.504;13.480;2022-10-31T11:16:53;17.90;99.90
51867;DHT22;52862;52.504;13.480;2022-10-31T11:19:22;18.00;99.90
51867;DHT22;52862;52.504;13.480;2022-10-31T11:21:50;18.00;99.90
51867;DHT22;52862;52.504;13.480;2022-10-31T11:24:21;17.80;99.90
51867;DHT22;52862;52.504;13.480;2022-10-31T11:26:49;15.80;99.90
51867;DHT22;52862;52.504;13.480;2022-10-31T11:29:21;17.50;99.90
51867;DHT22;52862;52.504;13.480;2022-10-31T11:31:52;17.60;99.90
51867;DHT22;52862;52.504;13.480;2022-10-31T11:34:26;17.60;99.90
51867;DHT22;52862;52.504;13.480;2022-10-31T11:36:59;17.60;99.90
51867;DHT22;52862;52.504;13.480;2022-10-31T11:39:28;17.70;99.90
51867;DHT22;52862;52.504;13.480;2022-10-31T11:41:59;17.80;99.90
51867;DHT22;52862;52.504;13.480;2022-10-31T11:44:32;18.10;99.90
51867;DHT22;52862;52.504;13.480;2022-10-31T11:47:00;18.30;99.90
51867;DHT22;52862;52.504;13.480;2022-10-31T11:49:30;18.50;99.90
51867;DHT22;52862;52.504;13.480;2022-10-31T11:52:01;18.70;99.90
51867;DHT22;52862;52.504;13.480;2022-10-31T11:54:33;18.60;99.90
51867;DHT22;52862;52.504;13.480;2022-10-31T11:57:02;18.80;99.90
51867;DHT22;52862;52.504;13.480;2022-10-31T11:59:31;18.80;99.90
51867;DHT22;52862;52.504;13.480;2022-10-31T12:01:59;18.90;99.90
51867;DHT22;52862;52.504;13.480;2022-10-31T12:04:35;18.70;99.90
51867;DHT22;52862;52.504;13.480;2022-10-31T12:07:04;18.90;99.90
51867;DHT22;52862;52.504;13.480;2022-10-31T12:09:34;19.20;99.90
51867;DHT22;52862;52.504;13.480;2022-10-31T12:14:59;19.40;99.90
51867;DHT22;52862;52.504;13.480;2022-10-31T12:17:33;19.40;99.90
51867;DHT22;52862;52.504;13.480;2022-10-31T12:20:07;19.30;99.90
51867;DHT22;52862;52.504;13.480;2022-10-31T12:22:44;19.60;99.90
51867;DHT22;52862;52.504;13.480;2022-10-31T12:25:26;19.80;99.90
51867;DHT22;52862;52.504;13.480;2022-10-31T12:28:15;20.10;99.90
51867;DHT22;52862;52.504;13.480;2022-10-31T12:30:57;20.30;99.90
51867;DHT22;52862;52.504;13.480;2022-10-31T12:33:37;21.20;99.90
51867;DHT22;52862;52.504;13.480;2022-10-31T12:36:26;24.90;99.90
51867;DHT22;52862;52.504;13.480;2022-10-31T12:39:06;27.50;99.90
51867;DHT22;52862;52.504;13.480;2022-10-31T12:41:46;29.30;99.90
51867;DHT22;52862;52.504;13.480;2022-10-31T12:44:30;30.70;99.70
51867;DHT22;52862;52.504;13.480;2022-10-31T12:47:18;30.10;98.70
51867;DHT22;52862;52.504;13.480;2022-10-31T12:49:56;29.80;98.40
51867;DHT22;52862;52.504;13.480;2022-10-31T12:52:37;29.20;98.30
51867;DHT22;52862;52.504;13.480;2022-10-31T12:55:20;29.50;98.40
51867;DHT22;52862;52.504;13.480;2022-10-31T12:57:55;29.00;98.20
51867;DHT22;52862;52.504;13.480;2022-10-31T13:00:24;28.70;98.50
51867;DHT22;52862;52.504;13.480;2022-10-31T13:02:57;29.10;98.10
51867;DHT22;52862;52.504;13.480;2022-10-31T13:05:29;28.90;98.40
51867;DHT22;52862;52.504;13.480;2022-10-31T13:07:59;28.40;98.70
51867;DHT22;52862;52.504;13.480;2022-10-31T13:10:31;28.30;98.90
51867;DHT22;52862;52.504;13.480;2022-10-31T13:13:06;28.40;99.20
51867;DHT22;52862;52.504;13.480;2022-10-31T13:15:45;28.40;98.90
51867;DHT22;52862;52.504;13.480;2022-10-31T13:18:25;28.70;98.60
51867;DHT22;52862;52.504;13.480;2022-10-31T13:20:53;29.00;98.30
51867;DHT22;52862;52.504;13.480;2022-10-31T13:23:27;28.70;98.10
51867;DHT22;52862;52.504;13.480;2022-10-31T13:26:21;28.50;98.40
51867;DHT22;52862;52.504;13.480;2022-10-31T13:28:52;27.60;99.50
51867;DHT22;52862;52.504;13.480;2022-10-31T13:31:21;26.90;99.90
51867;DHT22;52862;52.504;13.480;2022-10-31T13:33:51;26.00;99.90
51867;DHT22;52862;52.504;13.480;2022-10-31T13:36:26;25.30;99.90
51867;DHT22;52862;52.504;13.480;2022-10-31T13:38:59;25.20;99.90
51867;DHT22;52862;52.504;13.480;2022-10-31T13:41:37;25.10;99.90
51867;DHT22;52862;52.504;13.480;2022-10-31T13:44:13;24.50;99.90
51867;DHT22;52862;52.504;13.480;2022-10-31T13:46:41;24.10;99.90
51867;DHT22;52862;52.504;13.480;2022-10-31T13:49:37;23.00;99.90
51867;DHT22;52862;52.504;13.480;2022-10-31T13:52:23;21.90;99.90
51867;DHT22;52862;52.504;13.480;2022-10-31T13:54:51;21.40;99.90
51867;DHT22;52862;52.504;13.480;2022-10-31T13:57:30;21.10;99.90
51867;DHT22;52862;52.504;13.480;2022-10-31T14:00:03;20.80;99.90
51867;DHT22;52862;52.504;13.480;2022-10-31T14:02:31;21.40;99.90
51867;DHT22;52862;52.504;13.480;2022-10-31T14:05:01;20.20;99.90
51867;DHT22;52862;52.504;13.480;2022-10-31T14:07:29;20.10;99.90
51867;DHT22;52862;52.504;13.480;2022-10-31T14:09:58;19.90;99.90
51867;DHT22;52862;52.504;13.480;2022-10-31T14:12:30;19.80;99.90
51867;DHT22;52862;52.504;13.480;2022-10-31T14:15:00;19.50;99.90
51867;DHT22;52862;52.504;13.480;2022-10-31T14:17:45;19.60;99.90
51867;DHT22;52862;52.504;13.480;2022-10-31T14:20:36;19.50;99.90
51867;DHT22;52862;52.504;13.480;2022-10-31T14:23:30;19.40;99.90
51867;DHT22;52862;52.504;13.480;2022-10-31T14:26:20;19.30;99.90
51867;DHT22;52862;52.504;13.480;2022-10-31T14:28:58;19.20;99.90
51867;DHT22;52862;52.504;13.480;2022-10-31T14:31:33;19.00;99.90
51867;DHT22;52862;52.504;13.480;2022-10-31T14:34:14;19.00;99.90
51867;DHT22;52862;52.504;13.480;2022-10-31T14:36:51;18.90;99.90
51867;DHT22;52862;52.504;13.480;2022-10-31T14:39:25;18.80;99.90
51867;DHT22;52862;52.504;13.480;2022-10-31T14:42:06;18.90;99.90
51867;DHT22;52862;52.504;13.480;2022-10-31T14:44:49;18.70;99.90
51867;DHT22;52862;52.504;13.480;2022-10-31T14:47:24;18.60;99.90
51867;DHT22;52862;52.504;13.480;2022-10-31T14:50:10;18.50;99.90
51867;DHT22;52862;52.504;13.480;2022-10-31T14:52:40;18.40;99.90
51867;DHT22;52862;52.504;13.480;2022-10-31T14:55:11;18.30;99.90
51867;DHT22;52862;52.504;13.480;2022-10-31T14:57:49;18.30;99.90
51867;DHT22;52862;52.504;13.480;2022-10-31T15:00:19;18.20;99.90
51867;DHT22;52862;52.504;13.480;2022-10-31T15:03:08;18.20;99.90
51867;DHT22;52862;52.504;13.480;2022-10-31T15:05:44;18.00;99.90
51867;DHT22;52862;52.504;13.480;2022-10-31T15:08:25;17.90;99.90
51867;DHT22;52862;52.504;13.480;2022-10-31T15:10:53;17.80;99.90
51867;DHT22;52862;52.504;13.480;2022-10-31T15:13:21;17.30;99.90
51867;DHT22;52862;52.504;13.480;2022-10-31T15:15:49;17.50;99.90
51867;DHT22;52862;52.504;13.480;2022-10-31T15:18:20;17.10;99.90
51867;DHT22;52862;52.504;13.480;2022-10-31T15:20:48;17.20;99.90
51867;DHT22;52862;52.504;13.480;2022-10-31T15:23:21;17.00;99.90
51867;DHT22;52862;52.504;13.480;2022-10-31T15:25:49;15.80;99.90
51867;DHT22;52862;52.504;13.480;2022-10-31T15:28:21;16.90;99.90
51867;DHT22;52862;52.504;13.480;2022-10-31T15:30:53;16.80;99.90
51867;DHT22;52862;52.504;13.480;2022-10-31T15:33:22;16.70;99.90
51867;DHT22;52862;52.504;13.480;2022-10-31T15:35:56;16.90;99.90
51867;DHT22;52862;52.504;13.480;2022-10-31T15:38:24;16.60;99.90
51867;DHT22;52862;52.504;13.480;2022-10-31T15:40:53;16.60;99.90
51867;DHT22;52862;52.504;13.480;2022-10-31T15:43:21;16.40;99.90
51867;DHT22;52862;52.504;13.480;2022-10-31T15:45:48;16.40;99.90